Time,TemperatureF,DewpointF,PressureIn,WindDirection,WindDirectionDegrees,WindSpeedMPH,WindSpeedGustMPH,Humidity,HourlyPrecipIn,Conditions,Clouds,dailyrainin,SoftwareType,DateUTC
2013-07-24 00:01:00,73.2,21.2,0.00,NNW,346,0.0,0.0,14,0.00,,---,0.00,VWS V14.01,2013-07-24 07:01:00,
2013-07-24 00:06:00,72.7,20.8,0.00,North,353,0.0,0.0,14,0.00,,---,0.00,VWS V14.01,2013-07-24 07:06:00,
2013-07-24 00:12:00,72.5,20.6,0.00,North,353,0.0,0.0,14,0.00,,---,0.00,VWS V14.01,2013-07-24 07:12:00,
2013-07-24 00:17:00,72.5,20.6,0.00,North,353,0.0,0.0,14,0.00,,---,0.00,VWS V14.01,2013-07-24 07:17:00,
2013-07-24 00:23:00,72.0,20.2,0.00,North,353,0.0,0.0,14,0.00,,---,0.00,VWS V14.01,2013-07-24 07:23:00,
2013-07-24 00:29:00,71.2,16.1,0.00,North,353,0.0,0.0,12,0.00,,---,0.00,VWS V14.01,2013-07-24 07:29:00,
2013-07-24 00:34:00,70.7,15.6,0.00,North,353,0.0,0.0,12,0.00,,---,0.00,VWS V14.01,2013-07-24 07:34:00,
2013-07-24 00:40:00,70.0,15.1,0.00,North,353,0.0,0.0,12,0.00,,---,0.00,VWS V14.01,2013-07-24 07:40:00,
2013-07-24 00:46:00,69.3,14.5,0.00,North,353,0.0,0.0,12,0.00,,---,0.00,VWS V14.01,2013-07-24 07:46:00,
2013-07-24 00:51:00,69.3,14.5,0.00,North,353,0.0,0.0,12,0.00,,---,0.00,VWS V14.01,2013-07-24 07:51:00,
2013-07-24 00:57:00,69.3,14.5,0.00,North,353,0.0,0.0,12,0.00,,---,0.00,VWS V14.01,2013-07-24 07:57:00,
2013-07-24 01:02:00,69.3,14.5,0.00,North,353,0.0,0.0,12,0.00,,---,0.00,VWS V14.01,2013-07-24 08:02:00,
2013-07-24 01:08:00,69.3,14.5,0.00,North,353,0.0,0.0,12,0.00,,---,0.00,VWS V14.01,2013-07-24 08:08:00,
2013-07-24 01:13:00,68.9,14.2,0.00,NNW,340,3.6,4.0,12,0.00,,---,0.00,VWS V14.01,2013-07-24 08:13:00,
2013-07-24 01:19:00,68.9,14.2,0.00,North,353,4.0,4.0,12,0.00,,---,0.00,VWS V14.01,2013-07-24 08:19:00,
2013-07-24 01:25:00,68.5,19.1,0.00,NNW,331,6.3,8.1,15,0.00,,---,0.00,VWS V14.01,2013-07-24 08:25:00,
2013-07-24 01:30:00,68.7,19.2,0.00,NNW,346,6.7,6.7,15,0.00,,---,0.00,VWS V14.01,2013-07-24 08:30:00,
2013-07-24 01:36:00,68.2,18.8,0.00,NNW,348,4.0,4.0,15,0.00,,---,0.00,VWS V14.01,2013-07-24 08:36:00,
2013-07-24 01:42:00,67.6,18.4,0.00,North,7,0.0,4.9,15,0.00,,---,0.00,VWS V14.01,2013-07-24 08:42:00,
2013-07-24 01:48:00,67.1,12.8,0.00,North,357,3.1,4.0,12,0.00,,---,0.00,VWS V14.01,2013-07-24 08:48:00,
2013-07-24 01:54:00,66.7,12.5,0.00,NNE,23,0.0,4.0,12,0.00,,---,0.00,VWS V14.01,2013-07-24 08:54:00,
2013-07-24 02:00:00,66.6,12.4,0.00,NNE,30,0.0,0.0,12,0.00,,---,0.00,VWS V14.01,2013-07-24 09:00:00,
2013-07-24 02:05:00,66.4,12.3,0.00,NE,39,0.0,0.0,12,0.00,,---,0.00,VWS V14.01,2013-07-24 09:05:00,
2013-07-24 02:12:00,66.0,13.8,0.00,NE,51,0.0,0.0,13,0.00,,---,0.00,VWS V14.01,2013-07-24 09:12:00,
2013-07-24 02:17:00,65.8,13.6,0.00,NE,51,0.0,0.0,13,0.00,,---,0.00,VWS V14.01,2013-07-24 09:17:00,
2013-07-24 02:22:00,65.8,13.6,0.00,NE,51,0.0,0.0,13,0.00,,---,0.00,VWS V14.01,2013-07-24 09:22:00,
2013-07-24 02:28:00,65.8,13.6,0.00,NE,51,0.0,0.0,13,0.00,,---,0.00,VWS V14.01,2013-07-24 09:28:00,
2013-07-24 02:33:00,65.7,13.5,0.00,NE,51,0.0,0.0,13,0.00,,---,0.00,VWS V14.01,2013-07-24 09:33:00,
2013-07-24 02:39:00,65.7,13.5,0.00,NE,51,0.0,0.0,13,0.00,,---,0.00,VWS V14.01,2013-07-24 09:39:00,
2013-07-24 02:45:00,65.5,13.4,0.00,NE,51,0.0,0.0,13,0.00,,---,0.00,VWS V14.01,2013-07-24 09:45:00,
2013-07-24 02:50:00,65.7,13.5,0.00,NE,51,0.0,0.0,13,0.00,,---,0.00,VWS V14.01,2013-07-24 09:50:00,
2013-07-24 02:56:00,65.8,13.6,0.00,NE,47,0.0,0.0,13,0.00,,---,0.00,VWS V14.01,2013-07-24 09:56:00,
2013-07-24 03:01:00,65.7,13.5,0.00,North,353,0.0,0.0,13,0.00,,---,0.00,VWS V14.01,2013-07-24 10:01:00,
2013-07-24 03:07:00,65.5,13.4,0.00,North,353,0.0,0.0,13,0.00,,---,0.00,VWS V14.01,2013-07-24 10:07:00,
2013-07-24 03:12:00,65.5,13.4,0.00,North,353,0.0,0.0,13,0.00,,---,0.00,VWS V14.01,2013-07-24 10:12:00,
2013-07-24 03:18:00,65.3,13.2,0.00,North,353,0.0,0.0,13,0.00,,---,0.00,VWS V14.01,2013-07-24 10:18:00,
2013-07-24 03:23:00,65.3,13.2,0.00,North,353,0.0,0.0,13,0.00,,---,0.00,VWS V14.01,2013-07-24 10:23:00,
2013-07-24 03:28:00,65.5,13.4,0.00,North,353,0.0,0.0,13,0.00,,---,0.00,VWS V14.01,2013-07-24 10:28:00,
2013-07-24 03:34:00,65.5,13.4,0.00,North,353,0.0,0.0,13,0.00,,---,0.00,VWS V14.01,2013-07-24 10:34:00,
2013-07-24 03:39:00,65.3,13.2,0.00,North,353,0.0,0.0,13,0.00,,---,0.00,VWS V14.01,2013-07-24 10:39:00,
2013-07-24 03:40:00,65.3,13.2,0.00,North,353,0.0,0.0,13,0.00,,---,0.00,VWS V14.01,2013-07-24 10:40:00,
2013-07-24 03:46:00,65.1,13.1,0.00,North,353,0.0,0.0,13,0.00,,---,0.00,VWS V14.01,2013-07-24 10:46:00,
2013-07-24 03:52:00,65.1,13.1,0.00,NE,35,0.0,0.0,13,0.00,,---,0.00,VWS V14.01,2013-07-24 10:52:00,
2013-07-24 03:57:00,64.8,12.8,0.00,NNW,348,0.0,0.0,13,0.00,,---,0.00,VWS V14.01,2013-07-24 10:57:00,
2013-07-24 04:03:00,64.2,12.4,0.00,NNW,348,0.0,0.0,13,0.00,,---,0.00,VWS V14.01,2013-07-24 11:03:00,
2013-07-24 04:08:00,63.9,12.1,0.00,NNE,13,0.0,2.2,13,0.00,,---,0.00,VWS V14.01,2013-07-24 11:08:00,
2013-07-24 04:14:00,63.7,16.7,0.00,North,0,3.1,4.9,16,0.00,,---,0.00,VWS V14.01,2013-07-24 11:14:00,
2013-07-24 04:20:00,63.7,16.7,0.00,NNW,332,2.7,5.4,16,0.00,,---,0.00,VWS V14.01,2013-07-24 11:20:00,
2013-07-24 04:25:00,63.7,16.7,0.00,NNW,344,0.0,2.7,16,0.00,,---,0.00,VWS V14.01,2013-07-24 11:25:00,
2013-07-24 04:31:00,63.7,16.7,0.00,North,0,0.0,4.9,16,0.00,,---,0.00,VWS V14.01,2013-07-24 11:31:00,
2013-07-24 04:37:00,63.7,16.7,0.00,North,353,0.0,4.0,16,0.00,,---,0.00,VWS V14.01,2013-07-24 11:37:00,
2013-07-24 04:42:00,63.9,16.8,0.00,North,353,4.0,5.8,16,0.00,,---,0.00,VWS V14.01,2013-07-24 11:42:00,
2013-07-24 04:48:00,64.2,17.1,0.00,NNW,338,2.7,4.9,16,0.00,,---,0.00,VWS V14.01,2013-07-24 11:48:00,
2013-07-24 04:53:00,64.4,15.8,0.00,NNW,348,0.0,3.1,15,0.00,,---,0.00,VWS V14.01,2013-07-24 11:53:00,
2013-07-24 04:59:00,64.0,17.0,0.00,North,0,3.1,4.5,16,0.00,,---,0.00,VWS V14.01,2013-07-24 11:59:00,
2013-07-24 05:04:00,63.7,19.4,0.00,North,353,7.6,7.6,18,0.00,,---,0.00,VWS V14.01,2013-07-24 12:04:00,
2013-07-24 05:10:00,63.5,22.9,0.00,NNE,15,0.0,4.0,21,0.00,,---,0.00,VWS V14.01,2013-07-24 12:10:00,
2013-07-24 05:15:00,63.3,19.1,0.00,NNE,25,2.2,2.2,18,0.00,,---,0.00,VWS V14.01,2013-07-24 12:15:00,
2013-07-24 05:20:00,62.8,18.7,0.00,NNW,346,4.0,4.0,18,0.00,,---,0.00,VWS V14.01,2013-07-24 12:20:00,
2013-07-24 05:26:00,62.4,19.6,0.00,NE,56,0.0,2.7,19,0.00,,---,0.00,VWS V14.01,2013-07-24 12:26:00,
2013-07-24 05:31:00,62.1,21.7,0.00,NE,45,0.0,0.0,21,0.00,,---,0.00,VWS V14.01,2013-07-24 12:31:00,
2013-07-24 05:37:00,62.1,21.7,0.00,NE,36,0.0,0.0,21,0.00,,---,0.00,VWS V14.01,2013-07-24 12:37:00,
2013-07-24 05:42:00,61.9,19.2,0.00,NE,47,0.0,0.0,19,0.00,,---,0.00,VWS V14.01,2013-07-24 12:42:00,
2013-07-24 05:48:00,61.5,14.9,0.00,East,84,0.0,0.0,16,0.00,,---,0.00,VWS V14.01,2013-07-24 12:48:00,
2013-07-24 05:54:00,61.0,14.5,0.00,East,84,0.0,0.0,16,0.00,,---,0.00,VWS V14.01,2013-07-24 12:54:00,
2013-07-24 05:59:00,61.2,14.6,0.00,East,84,0.0,0.0,16,0.00,,---,0.00,VWS V14.01,2013-07-24 12:59:00,
2013-07-24 06:05:00,62.1,15.4,0.00,East,84,0.0,0.0,16,0.00,,---,0.00,VWS V14.01,2013-07-24 13:05:00,
2013-07-24 06:10:00,63.1,11.5,0.00,East,84,0.0,0.0,13,0.00,,---,0.00,VWS V14.01,2013-07-24 13:10:00,
2013-07-24 06:16:00,64.0,12.2,0.00,North,9,0.0,0.0,13,0.00,,---,0.00,VWS V14.01,2013-07-24 13:16:00,
2013-07-24 06:22:00,64.8,12.8,0.00,North,0,0.0,0.0,13,0.00,,---,0.00,VWS V14.01,2013-07-24 13:22:00,
2013-07-24 06:27:00,65.5,16.6,0.00,NNW,336,5.4,5.4,15,0.00,,---,0.00,VWS V14.01,2013-07-24 13:27:00,
2013-07-24 06:33:00,65.7,16.8,0.00,North,1,0.0,0.0,15,0.00,,---,0.00,VWS V14.01,2013-07-24 13:33:00,
2013-07-24 06:38:00,65.5,16.6,0.00,North,10,3.6,5.4,15,0.00,,---,0.00,VWS V14.01,2013-07-24 13:38:00,
2013-07-24 06:44:00,65.1,16.4,0.00,North,357,3.6,4.0,15,0.00,,---,0.00,VWS V14.01,2013-07-24 13:44:00,
2013-07-24 06:49:00,64.8,16.1,0.00,NE,35,0.0,3.1,15,0.00,,---,0.00,VWS V14.01,2013-07-24 13:49:00,
2013-07-24 06:55:00,65.3,16.5,0.00,NE,50,0.0,0.0,15,0.00,,---,0.00,VWS V14.01,2013-07-24 13:55:00,
2013-07-24 07:00:00,65.8,16.9,0.00,NNE,25,0.0,0.0,15,0.00,,---,0.00,VWS V14.01,2013-07-24 14:00:00,
2013-07-24 07:05:00,66.4,17.4,0.00,North,2,0.0,0.0,15,0.00,,---,0.00,VWS V14.01,2013-07-24 14:05:00,
2013-07-24 07:11:00,66.9,17.8,0.00,North,2,0.0,0.0,15,0.00,,---,0.00,VWS V14.01,2013-07-24 14:11:00,
2013-07-24 07:16:00,68.0,18.7,0.00,North,2,0.0,0.0,15,0.00,,---,0.00,VWS V14.01,2013-07-24 14:16:00,
2013-07-24 07:21:00,68.7,19.2,0.00,NNW,342,0.0,0.0,15,0.00,,---,0.00,VWS V14.01,2013-07-24 14:21:00,
2013-07-24 07:26:00,69.1,19.5,0.00,NNW,346,0.0,0.0,15,0.00,,---,0.00,VWS V14.01,2013-07-24 14:26:00,
2013-07-24 07:32:00,69.4,19.8,0.00,NNW,339,0.0,0.0,15,0.00,,---,0.00,VWS V14.01,2013-07-24 14:32:00,
2013-07-24 07:38:00,69.6,20.0,0.00,North,357,0.0,0.0,15,0.00,,---,0.00,VWS V14.01,2013-07-24 14:38:00,
2013-07-24 07:44:00,70.5,19.1,0.00,North,353,0.0,0.0,14,0.00,,---,0.00,VWS V14.01,2013-07-24 14:44:00,
2013-07-24 07:50:00,71.1,19.5,0.00,North,357,0.0,0.0,14,0.00,,---,0.00,VWS V14.01,2013-07-24 14:50:00,
2013-07-24 07:55:00,71.2,19.6,0.00,NNW,344,2.7,2.7,14,0.00,,---,0.00,VWS V14.01,2013-07-24 14:55:00,
2013-07-24 08:01:00,71.1,19.5,0.00,North,5,0.0,0.0,14,0.00,,---,0.00,VWS V14.01,2013-07-24 15:01:00,
2013-07-24 08:07:00,71.2,19.6,0.00,North,9,0.0,0.0,14,0.00,,---,0.00,VWS V14.01,2013-07-24 15:07:00,
2013-07-24 08:12:00,71.2,19.6,0.00,ENE,61,0.0,0.0,14,0.00,,---,0.00,VWS V14.01,2013-07-24 15:12:00,
2013-07-24 08:18:00,71.8,20.1,0.00,North,9,0.0,0.0,14,0.00,,---,0.00,VWS V14.01,2013-07-24 15:18:00,
2013-07-24 08:23:00,72.1,20.4,0.00,North,3,0.0,0.0,14,0.00,,---,0.00,VWS V14.01,2013-07-24 15:23:00,
2013-07-24 08:29:00,72.9,20.9,0.00,ENE,59,0.0,0.0,14,0.00,,---,0.00,VWS V14.01,2013-07-24 15:29:00,
2013-07-24 08:34:00,73.8,19.9,0.00,NE,47,0.0,0.0,13,0.00,,---,0.00,VWS V14.01,2013-07-24 15:34:00,
2013-07-24 08:40:00,74.1,20.2,0.00,North,349,0.0,0.0,13,0.00,,---,0.00,VWS V14.01,2013-07-24 15:40:00,
2013-07-24 08:46:00,74.1,20.2,0.00,North,357,0.0,0.0,13,0.00,,---,0.00,VWS V14.01,2013-07-24 15:46:00,
2013-07-24 08:51:00,74.8,20.7,0.00,North,357,0.0,0.0,13,0.00,,---,0.00,VWS V14.01,2013-07-24 15:51:00,
2013-07-24 08:56:00,75.6,21.3,0.00,NW,317,0.0,0.0,13,0.00,,---,0.00,VWS V14.01,2013-07-24 15:56:00,
2013-07-24 09:01:00,76.8,22.3,0.00,NNW,344,0.0,0.0,13,0.00,,---,0.00,VWS V14.01,2013-07-24 16:01:00,
2013-07-24 09:07:00,77.5,22.9,0.00,North,357,0.0,0.0,13,0.00,,---,0.00,VWS V14.01,2013-07-24 16:07:00,
2013-07-24 09:12:00,77.9,23.1,0.00,NE,40,0.0,0.0,13,0.00,,---,0.00,VWS V14.01,2013-07-24 16:12:00,
2013-07-24 09:18:00,78.3,23.4,0.00,NNW,338,0.0,0.0,13,0.00,,---,0.00,VWS V14.01,2013-07-24 16:18:00,
2013-07-24 09:24:00,78.8,22.0,0.00,NNW,340,0.0,0.0,12,0.00,,---,0.00,VWS V14.01,2013-07-24 16:24:00,
2013-07-24 09:29:00,79.9,22.8,0.00,WSW,250,0.0,0.0,12,0.00,,---,0.00,VWS V14.01,2013-07-24 16:29:00,
2013-07-24 09:35:00,80.1,22.9,0.00,South,187,0.0,0.0,12,0.00,,---,0.00,VWS V14.01,2013-07-24 16:35:00,
2013-07-24 09:40:00,80.1,22.9,0.00,SW,233,0.0,0.0,12,0.00,,---,0.00,VWS V14.01,2013-07-24 16:40:00,
2013-07-24 09:46:00,80.8,23.5,0.00,North,353,4.0,4.0,12,0.00,,---,0.00,VWS V14.01,2013-07-24 16:46:00,
2013-07-24 09:52:00,81.0,23.6,0.00,NNW,336,6.3,6.3,12,0.00,,---,0.00,VWS V14.01,2013-07-24 16:52:00,
2013-07-24 09:58:00,81.0,23.6,0.00,NE,42,4.0,4.0,12,0.00,,---,0.00,VWS V14.01,2013-07-24 16:58:00,
2013-07-24 10:03:00,81.7,24.2,0.00,North,353,0.0,0.0,12,0.00,,---,0.00,VWS V14.01,2013-07-24 17:03:00,
2013-07-24 10:09:00,82.4,22.7,0.00,WSW,243,4.9,4.9,11,0.00,,---,0.00,VWS V14.01,2013-07-24 17:09:00,
2013-07-24 10:14:00,82.8,23.0,0.00,SE,146,2.7,6.3,11,0.00,,---,0.00,VWS V14.01,2013-07-24 17:14:00,
2013-07-24 10:20:00,82.8,23.0,0.00,South,170,4.0,4.9,11,0.00,,---,0.00,VWS V14.01,2013-07-24 17:20:00,
2013-07-24 10:25:00,82.8,23.0,0.00,SSW,201,5.8,8.1,11,0.00,,---,0.00,VWS V14.01,2013-07-24 17:25:00,
2013-07-24 10:31:00,82.9,23.1,0.00,SSE,166,6.3,7.6,11,0.00,,---,0.00,VWS V14.01,2013-07-24 17:31:00,
2013-07-24 10:36:00,83.1,23.2,0.00,SSW,204,8.1,10.1,11,0.00,,---,0.00,VWS V14.01,2013-07-24 17:36:00,
2013-07-24 10:42:00,83.5,23.5,0.00,South,170,8.1,8.1,11,0.00,,---,0.00,VWS V14.01,2013-07-24 17:42:00,
2013-07-24 10:47:00,83.7,23.6,0.00,SSE,158,5.8,5.8,11,0.00,,---,0.00,VWS V14.01,2013-07-24 17:47:00,
2013-07-24 10:53:00,83.8,23.8,0.00,SSE,157,3.6,4.0,11,0.00,,---,0.00,VWS V14.01,2013-07-24 17:53:00,
2013-07-24 10:59:00,84.4,24.2,0.00,SSE,155,0.0,2.7,11,0.00,,---,0.00,VWS V14.01,2013-07-24 17:59:00,
2013-07-24 11:04:00,84.7,24.5,0.00,South,190,5.4,7.6,11,0.00,,---,0.00,VWS V14.01,2013-07-24 18:04:00,
2013-07-24 11:10:00,84.9,24.6,0.00,SW,225,2.2,5.4,11,0.00,,---,0.00,VWS V14.01,2013-07-24 18:10:00,
2013-07-24 11:16:00,85.5,25.0,0.00,South,184,2.7,4.9,11,0.00,,---,0.00,VWS V14.01,2013-07-24 18:16:00,
2013-07-24 11:21:00,85.6,25.2,0.00,SW,232,3.6,4.5,11,0.00,,---,0.00,VWS V14.01,2013-07-24 18:21:00,
2013-07-24 11:27:00,86.2,25.6,0.00,South,171,3.6,6.3,11,0.00,,---,0.00,VWS V14.01,2013-07-24 18:27:00,
2013-07-24 11:32:00,86.4,25.7,0.00,South,184,4.9,4.9,11,0.00,,---,0.00,VWS V14.01,2013-07-24 18:32:00,
2013-07-24 11:38:00,86.2,25.6,0.00,SSW,192,5.8,6.3,11,0.00,,---,0.00,VWS V14.01,2013-07-24 18:38:00,
2013-07-24 11:44:00,86.4,25.7,0.00,SE,145,3.6,5.4,11,0.00,,---,0.00,VWS V14.01,2013-07-24 18:44:00,
2013-07-24 11:49:00,87.1,26.3,0.00,SSW,204,2.7,4.9,11,0.00,,---,0.00,VWS V14.01,2013-07-24 18:49:00,
2013-07-24 11:55:00,87.4,26.5,0.00,South,182,5.4,5.8,11,0.00,,---,0.00,VWS V14.01,2013-07-24 18:55:00,
2013-07-24 12:00:00,87.4,26.5,0.00,WSW,240,3.6,6.3,11,0.00,,---,0.00,VWS V14.01,2013-07-24 19:00:00,
2013-07-24 12:06:00,87.6,26.7,0.00,SE,146,5.4,5.4,11,0.00,,---,0.00,VWS V14.01,2013-07-24 19:06:00,
2013-07-24 12:11:00,88.0,24.7,0.00,ESE,122,2.7,2.7,10,0.00,,---,0.00,VWS V14.01,2013-07-24 19:11:00,
2013-07-24 12:17:00,88.2,24.8,0.00,South,172,6.3,10.1,10,0.00,,---,0.00,VWS V14.01,2013-07-24 19:17:00,
2013-07-24 12:22:00,88.3,24.9,0.00,SSW,196,4.9,4.9,10,0.00,,---,0.00,VWS V14.01,2013-07-24 19:22:00,
2013-07-24 12:28:00,88.5,25.1,0.00,South,173,5.8,5.8,10,0.00,,---,0.00,VWS V14.01,2013-07-24 19:28:00,
2013-07-24 12:34:00,88.5,25.1,0.00,South,181,0.0,5.8,10,0.00,,---,0.00,VWS V14.01,2013-07-24 19:34:00,
2013-07-24 12:40:00,89.4,25.8,0.00,SE,144,2.7,4.9,10,0.00,,---,0.00,VWS V14.01,2013-07-24 19:40:00,
2013-07-24 12:45:00,89.6,25.9,0.00,South,169,0.0,3.6,10,0.00,,---,0.00,VWS V14.01,2013-07-24 19:45:00,
2013-07-24 12:51:00,89.6,25.9,0.00,SSE,156,3.6,5.8,10,0.00,,---,0.00,VWS V14.01,2013-07-24 19:51:00,
2013-07-24 12:56:00,89.6,25.9,0.00,SSE,166,0.0,0.0,10,0.00,,---,0.00,VWS V14.01,2013-07-24 19:56:00,
2013-07-24 13:02:00,90.0,26.2,0.00,SSE,165,0.0,0.0,10,0.00,,---,0.00,VWS V14.01,2013-07-24 20:02:00,
2013-07-24 13:07:00,90.1,26.3,0.00,South,179,0.0,2.2,10,0.00,,---,0.00,VWS V14.01,2013-07-24 20:07:00,
2013-07-24 13:13:00,90.3,26.4,0.00,South,173,4.0,6.3,10,0.00,,---,0.00,VWS V14.01,2013-07-24 20:13:00,
2013-07-24 13:19:00,91.0,27.0,0.00,SE,142,0.0,0.0,10,0.00,,---,0.00,VWS V14.01,2013-07-24 20:19:00,
2013-07-24 13:24:00,91.8,25.0,0.00,SE,139,4.0,4.0,9,0.00,,---,0.00,VWS V14.01,2013-07-24 20:24:00,
2013-07-24 13:30:00,91.6,24.8,0.00,South,180,4.0,4.0,9,0.00,,---,0.00,VWS V14.01,2013-07-24 20:30:00,
2013-07-24 13:36:00,91.6,24.8,0.00,West,259,3.1,5.8,9,0.00,,---,0.00,VWS V14.01,2013-07-24 20:36:00,
2013-07-24 13:41:00,92.1,25.2,0.00,NNW,341,3.6,6.7,9,0.00,,---,0.00,VWS V14.01,2013-07-24 20:41:00,
2013-07-24 13:47:00,92.3,25.4,0.00,South,191,2.2,6.3,9,0.00,,---,0.00,VWS V14.01,2013-07-24 20:47:00,
2013-07-24 13:52:00,92.3,25.4,0.00,WSW,241,0.0,4.0,9,0.00,,---,0.00,VWS V14.01,2013-07-24 20:52:00,
2013-07-24 13:58:00,93.0,25.9,0.00,WSW,257,0.0,0.0,9,0.00,,---,0.00,VWS V14.01,2013-07-24 20:58:00,
2013-07-24 14:03:00,93.4,26.2,0.00,WNW,287,0.0,0.0,9,0.00,,---,0.00,VWS V14.01,2013-07-24 21:03:00,
2013-07-24 14:09:00,93.4,26.2,0.00,West,280,0.0,6.3,9,0.00,,---,0.00,VWS V14.01,2013-07-24 21:09:00,
2013-07-24 14:15:00,93.4,26.2,0.00,SW,236,0.0,5.8,9,0.00,,---,0.00,VWS V14.01,2013-07-24 21:15:00,
2013-07-24 14:20:00,93.7,26.5,0.00,West,259,5.4,5.4,9,0.00,,---,0.00,VWS V14.01,2013-07-24 21:20:00,
2013-07-24 14:25:00,93.9,26.6,0.00,SW,221,5.4,5.4,9,0.00,,---,0.00,VWS V14.01,2013-07-24 21:25:00,
2013-07-24 14:30:00,93.9,26.6,0.00,SW,224,4.0,7.6,9,0.00,,---,0.00,VWS V14.01,2013-07-24 21:30:00,
2013-07-24 14:35:00,93.6,26.3,0.00,WSW,251,3.1,3.1,9,0.00,,---,0.00,VWS V14.01,2013-07-24 21:35:00,
2013-07-24 14:40:00,93.7,26.5,0.00,SSE,154,3.6,5.8,9,0.00,,---,0.00,VWS V14.01,2013-07-24 21:40:00,
2013-07-24 14:45:00,93.7,26.5,0.00,SSE,166,5.8,8.1,9,0.00,,---,0.00,VWS V14.01,2013-07-24 21:45:00,
2013-07-24 14:50:00,93.4,26.2,0.00,WSW,244,0.0,3.6,9,0.00,,---,0.00,VWS V14.01,2013-07-24 21:50:00,
2013-07-24 14:55:00,94.1,26.7,0.00,NNW,330,0.0,3.1,9,0.00,,---,0.00,VWS V14.01,2013-07-24 21:55:00,
2013-07-24 15:00:00,94.8,27.3,0.00,NNW,336,5.4,6.3,9,0.00,,---,0.00,VWS V14.01,2013-07-24 22:00:00,
2013-07-24 15:05:00,94.3,26.9,0.00,NNW,328,3.6,4.0,9,0.00,,---,0.00,VWS V14.01,2013-07-24 22:05:00,
2013-07-24 15:10:00,94.6,27.1,0.00,WSW,240,8.3,8.3,9,0.00,,---,0.00,VWS V14.01,2013-07-24 22:10:00,
2013-07-24 15:15:00,94.5,27.0,0.00,SSE,156,4.9,5.4,9,0.00,,---,0.00,VWS V14.01,2013-07-24 22:15:00,
2013-07-24 15:20:00,94.3,26.9,0.00,West,267,6.3,6.3,9,0.00,,---,0.00,VWS V14.01,2013-07-24 22:20:00,
2013-07-24 15:25:00,94.1,26.7,0.00,SSW,192,4.0,4.0,9,0.00,,---,0.00,VWS V14.01,2013-07-24 22:25:00,
2013-07-24 15:30:00,94.1,26.7,0.00,WSW,237,0.0,5.4,9,0.00,,---,0.00,VWS V14.01,2013-07-24 22:30:00,
2013-07-24 15:35:00,94.8,27.3,0.00,SW,223,4.9,4.9,9,0.00,,---,0.00,VWS V14.01,2013-07-24 22:35:00,
2013-07-24 15:40:00,94.5,27.0,0.00,West,265,5.4,5.4,9,0.00,,---,0.00,VWS V14.01,2013-07-24 22:40:00,
2013-07-24 15:45:00,94.8,27.3,0.00,NW,323,5.8,5.8,9,0.00,,---,0.00,VWS V14.01,2013-07-24 22:45:00,
2013-07-24 15:50:00,94.6,27.1,0.00,WSW,256,4.0,4.0,9,0.00,,---,0.00,VWS V14.01,2013-07-24 22:50:00,
2013-07-24 15:55:00,94.8,27.3,0.00,SW,219,0.0,0.0,9,0.00,,---,0.00,VWS V14.01,2013-07-24 22:55:00,
2013-07-24 16:00:00,94.8,27.3,0.00,NNW,342,2.7,4.0,9,0.00,,---,0.00,VWS V14.01,2013-07-24 23:00:00,
2013-07-24 16:05:00,95.0,27.4,0.00,South,182,6.3,9.6,9,0.00,,---,0.00,VWS V14.01,2013-07-24 23:05:00,
2013-07-24 16:10:00,94.6,27.1,0.00,SW,221,5.4,6.3,9,0.00,,---,0.00,VWS V14.01,2013-07-24 23:10:00,
2013-07-24 16:15:00,94.6,27.1,0.00,SSW,200,5.4,5.4,9,0.00,,---,0.00,VWS V14.01,2013-07-24 23:15:00,
2013-07-24 16:20:00,94.6,27.1,0.00,SW,229,6.7,7.6,9,0.00,,---,0.00,VWS V14.01,2013-07-24 23:20:00,
2013-07-24 16:25:00,94.6,27.1,0.00,NNW,332,3.6,4.0,9,0.00,,---,0.00,VWS V14.01,2013-07-24 23:25:00,
2013-07-24 16:30:00,95.2,27.5,0.00,WSW,247,5.4,5.4,9,0.00,,---,0.00,VWS V14.01,2013-07-24 23:30:00,
2013-07-24 16:35:00,94.8,27.3,0.00,SW,227,8.1,8.1,9,0.00,,---,0.00,VWS V14.01,2013-07-24 23:35:00,
2013-07-24 16:40:00,94.6,27.1,0.00,NNE,27,0.0,0.0,9,0.00,,---,0.00,VWS V14.01,2013-07-24 23:40:00,
2013-07-24 16:45:00,95.0,27.4,0.00,South,182,4.0,4.9,9,0.00,,---,0.00,VWS V14.01,2013-07-24 23:45:00,
2013-07-24 16:50:00,94.8,27.3,0.00,SSW,199,5.4,6.7,9,0.00,,---,0.00,VWS V14.01,2013-07-24 23:50:00,
2013-07-24 16:55:00,94.8,27.3,0.00,SSE,149,0.0,0.0,9,0.00,,---,0.00,VWS V14.01,2013-07-24 23:55:00,
2013-07-24 17:00:00,95.0,27.4,0.00,SSW,204,0.0,0.0,9,0.00,,---,0.00,VWS V14.01,2013-07-25 00:00:00,
2013-07-24 17:05:00,95.2,27.5,0.00,WSW,237,4.0,4.0,9,0.00,,---,0.00,VWS V14.01,2013-07-25 00:05:00,
2013-07-24 17:10:00,95.4,27.7,0.00,SW,227,3.6,5.4,9,0.00,,---,0.00,VWS V14.01,2013-07-25 00:10:00,
2013-07-24 17:15:00,94.8,27.3,0.00,WSW,240,4.0,7.2,9,0.00,,---,0.00,VWS V14.01,2013-07-25 00:15:00,
2013-07-24 17:20:00,94.8,27.3,0.00,WSW,238,5.8,5.8,9,0.00,,---,0.00,VWS V14.01,2013-07-25 00:20:00,
2013-07-24 17:25:00,94.1,26.7,0.00,South,178,2.7,3.1,9,0.00,,---,0.00,VWS V14.01,2013-07-25 00:25:00,
2013-07-24 17:30:00,93.0,25.9,0.00,West,273,2.7,5.4,9,0.00,,---,0.00,VWS V14.01,2013-07-25 00:30:00,
2013-07-24 17:35:00,93.4,26.2,0.00,SSW,198,3.1,6.3,9,0.00,,---,0.00,VWS V14.01,2013-07-25 00:35:00,
2013-07-24 17:40:00,93.9,26.6,0.00,NNW,341,2.7,4.0,9,0.00,,---,0.00,VWS V14.01,2013-07-25 00:40:00,
2013-07-24 17:45:00,94.6,27.1,0.00,WSW,237,0.0,0.0,9,0.00,,---,0.00,VWS V14.01,2013-07-25 00:45:00,
2013-07-24 17:50:00,94.6,27.1,0.00,South,175,4.9,5.4,9,0.00,,---,0.00,VWS V14.01,2013-07-25 00:50:00,
2013-07-24 17:55:00,94.1,26.7,0.00,SSE,157,0.0,0.0,9,0.00,,---,0.00,VWS V14.01,2013-07-25 00:55:00,
2013-07-24 18:00:00,93.6,26.3,0.00,SSW,208,2.7,4.0,9,0.00,,---,0.00,VWS V14.01,2013-07-25 01:00:00,
2013-07-24 18:05:00,93.0,25.9,0.00,South,172,3.1,3.6,9,0.00,,---,0.00,VWS V14.01,2013-07-25 01:05:00,
2013-07-24 18:10:00,92.8,25.8,0.00,SSE,159,4.9,7.2,9,0.00,,---,0.00,VWS V14.01,2013-07-25 01:10:00,
2013-07-24 18:15:00,92.5,25.5,0.00,SW,215,0.0,0.0,9,0.00,,---,0.00,VWS V14.01,2013-07-25 01:15:00,
2013-07-24 18:20:00,92.5,25.5,0.00,SSW,205,0.0,0.0,9,0.00,,---,0.00,VWS V14.01,2013-07-25 01:20:00,
2013-07-24 18:24:00,92.1,25.2,0.00,South,184,0.0,0.0,9,0.00,,---,0.00,VWS V14.01,2013-07-25 01:24:00,
2013-07-24 18:29:00,91.9,25.1,0.00,SSW,199,0.0,0.0,9,0.00,,---,0.00,VWS V14.01,2013-07-25 01:29:00,
2013-07-24 18:34:00,91.6,24.8,0.00,SSW,199,0.0,0.0,9,0.00,,---,0.00,VWS V14.01,2013-07-25 01:34:00,
2013-07-24 18:39:00,91.0,27.0,0.00,SW,216,0.0,0.0,10,0.00,,---,0.00,VWS V14.01,2013-07-25 01:39:00,
2013-07-24 18:44:00,90.7,26.7,0.00,WSW,238,0.0,0.0,10,0.00,,---,0.00,VWS V14.01,2013-07-25 01:44:00,
2013-07-24 18:49:00,90.3,26.4,0.00,WSW,242,0.0,0.0,10,0.00,,---,0.00,VWS V14.01,2013-07-25 01:49:00,
2013-07-24 18:54:00,90.5,26.6,0.00,SW,223,3.1,4.0,10,0.00,,---,0.00,VWS V14.01,2013-07-25 01:54:00,
2013-07-24 18:59:00,90.7,26.7,0.00,WSW,245,0.0,0.0,10,0.00,,---,0.00,VWS V14.01,2013-07-25 01:59:00,
2013-07-24 19:04:00,90.9,26.8,0.00,WSW,240,3.6,4.5,10,0.00,,---,0.00,VWS V14.01,2013-07-25 02:04:00,
2013-07-24 19:09:00,90.7,26.7,0.00,SW,224,0.0,0.0,10,0.00,,---,0.00,VWS V14.01,2013-07-25 02:09:00,
2013-07-24 19:14:00,90.5,26.6,0.00,SW,229,0.0,0.0,10,0.00,,---,0.00,VWS V14.01,2013-07-25 02:14:00,
2013-07-24 19:19:00,90.5,26.6,0.00,SW,214,0.0,0.0,10,0.00,,---,0.00,VWS V14.01,2013-07-25 02:19:00,
2013-07-24 19:24:00,90.3,26.4,0.00,SW,232,0.0,0.0,10,0.00,,---,0.00,VWS V14.01,2013-07-25 02:24:00,
2013-07-24 19:29:00,90.1,26.3,0.00,SW,231,0.0,0.0,10,0.00,,---,0.00,VWS V14.01,2013-07-25 02:29:00,
2013-07-24 19:34:00,89.8,26.0,0.00,SSW,213,0.0,0.0,10,0.00,,---,0.00,VWS V14.01,2013-07-25 02:34:00,
2013-07-24 19:39:00,89.6,25.9,0.00,SSW,213,0.0,0.0,10,0.00,,---,0.00,VWS V14.01,2013-07-25 02:39:00,
2013-07-24 19:44:00,89.4,25.8,0.00,SSW,213,0.0,0.0,10,0.00,,---,0.00,VWS V14.01,2013-07-25 02:44:00,
2013-07-24 19:49:00,89.1,25.5,0.00,SSW,213,0.0,0.0,10,0.00,,---,0.00,VWS V14.01,2013-07-25 02:49:00,
2013-07-24 19:54:00,88.5,25.1,0.00,SSW,213,0.0,0.0,10,0.00,,---,0.00,VWS V14.01,2013-07-25 02:54:00,
2013-07-24 19:59:00,88.3,24.9,0.00,SSW,213,0.0,0.0,10,0.00,,---,0.00,VWS V14.01,2013-07-25 02:59:00,
2013-07-24 20:04:00,88.0,24.7,0.00,SSW,213,0.0,0.0,10,0.00,,---,0.00,VWS V14.01,2013-07-25 03:04:00,
2013-07-24 20:09:00,87.4,26.5,0.00,SSW,213,0.0,0.0,11,0.00,,---,0.00,VWS V14.01,2013-07-25 03:09:00,
2013-07-24 20:15:00,87.1,26.3,0.00,SSW,213,0.0,0.0,11,0.00,,---,0.00,VWS V14.01,2013-07-25 03:15:00,
2013-07-24 20:20:00,86.9,26.1,0.00,SSW,213,0.0,0.0,11,0.00,,---,0.00,VWS V14.01,2013-07-25 03:20:00,
2013-07-24 20:25:00,86.7,26.0,0.00,SSW,213,0.0,0.0,11,0.00,,---,0.00,VWS V14.01,2013-07-25 03:25:00,
2013-07-24 20:30:00,86.5,25.9,0.00,SSW,209,0.0,0.0,11,0.00,,---,0.00,VWS V14.01,2013-07-25 03:30:00,
2013-07-24 20:35:00,85.8,25.3,0.00,SSW,209,0.0,0.0,11,0.00,,---,0.00,VWS V14.01,2013-07-25 03:35:00,
2013-07-24 20:40:00,85.3,24.9,0.00,SSW,209,0.0,0.0,11,0.00,,---,0.00,VWS V14.01,2013-07-25 03:40:00,
2013-07-24 20:45:00,84.7,24.5,0.00,SSW,209,0.0,0.0,11,0.00,,---,0.00,VWS V14.01,2013-07-25 03:45:00,
2013-07-24 20:50:00,84.2,24.0,0.00,SSW,209,0.0,0.0,11,0.00,,---,0.00,VWS V14.01,2013-07-25 03:50:00,
2013-07-24 20:55:00,83.3,23.4,0.00,SSW,209,0.0,0.0,11,0.00,,---,0.00,VWS V14.01,2013-07-25 03:55:00,
2013-07-24 21:00:00,82.8,23.0,0.00,SSW,209,0.0,0.0,11,0.00,,---,0.00,VWS V14.01,2013-07-25 04:00:00,
2013-07-24 21:01:00,82.8,23.0,0.00,SSW,209,0.0,0.0,11,0.00,,---,0.00,VWS V14.01,2013-07-25 04:01:00,
2013-07-24 21:02:00,82.8,23.0,0.00,SSW,209,0.0,0.0,11,0.00,,---,0.00,VWS V14.01,2013-07-25 04:02:00,
2013-07-24 21:07:00,82.0,24.5,0.00,SSW,209,0.0,0.0,12,0.00,,---,0.00,VWS V14.01,2013-07-25 04:07:00,
2013-07-24 21:12:00,81.3,23.9,0.00,SSW,209,0.0,0.0,12,0.00,,---,0.00,VWS V14.01,2013-07-25 04:12:00,
2013-07-24 21:17:00,80.8,23.5,0.00,SSW,209,0.0,0.0,12,0.00,,---,0.00,VWS V14.01,2013-07-25 04:17:00,
2013-07-24 21:22:00,80.4,23.2,0.00,SSW,209,0.0,0.0,12,0.00,,---,0.00,VWS V14.01,2013-07-25 04:22:00,
2013-07-24 21:27:00,80.2,23.1,0.00,SSW,209,0.0,0.0,12,0.00,,---,0.00,VWS V14.01,2013-07-25 04:27:00,
2013-07-24 21:32:00,80.1,22.9,0.00,SSW,209,0.0,0.0,12,0.00,,---,0.00,VWS V14.01,2013-07-25 04:32:00,
2013-07-24 21:37:00,80.1,22.9,0.00,NW,318,2.7,3.6,12,0.00,,---,0.00,VWS V14.01,2013-07-25 04:37:00,
2013-07-24 21:42:00,79.2,22.2,0.00,NW,312,0.0,0.0,12,0.00,,---,0.00,VWS V14.01,2013-07-25 04:42:00,
2013-07-24 21:47:00,78.6,23.7,0.00,NNW,338,0.0,0.0,13,0.00,,---,0.00,VWS V14.01,2013-07-25 04:47:00,
2013-07-24 21:52:00,78.4,23.6,0.00,NNW,338,0.0,0.0,13,0.00,,---,0.00,VWS V14.01,2013-07-25 04:52:00,
2013-07-24 21:57:00,77.9,23.1,0.00,NNW,338,0.0,0.0,13,0.00,,---,0.00,VWS V14.01,2013-07-25 04:57:00,
2013-07-24 22:02:00,77.7,23.0,0.00,NNW,338,0.0,0.0,13,0.00,,---,0.00,VWS V14.01,2013-07-25 05:02:00,
2013-07-24 22:07:00,77.9,23.1,0.00,NNW,338,0.0,0.0,13,0.00,,---,0.00,VWS V14.01,2013-07-25 05:07:00,
2013-07-24 22:12:00,78.1,23.3,0.00,NNW,338,0.0,0.0,13,0.00,,---,0.00,VWS V14.01,2013-07-25 05:12:00,
2013-07-24 22:17:00,78.3,23.4,0.00,NNW,338,0.0,0.0,13,0.00,,---,0.00,VWS V14.01,2013-07-25 05:17:00,
2013-07-24 22:22:00,77.9,23.1,0.00,NNW,338,0.0,0.0,13,0.00,,---,0.00,VWS V14.01,2013-07-25 05:22:00,
2013-07-24 22:27:00,77.5,22.9,0.00,NNW,338,0.0,0.0,13,0.00,,---,0.00,VWS V14.01,2013-07-25 05:27:00,
2013-07-24 22:32:00,77.4,22.7,0.00,NNW,338,0.0,0.0,13,0.00,,---,0.00,VWS V14.01,2013-07-25 05:32:00,
2013-07-24 22:37:00,77.4,22.7,0.00,NNW,338,0.0,0.0,13,0.00,,---,0.00,VWS V14.01,2013-07-25 05:37:00,
2013-07-24 22:42:00,77.0,22.4,0.00,NNW,338,0.0,0.0,13,0.00,,---,0.00,VWS V14.01,2013-07-25 05:42:00,
2013-07-24 22:47:00,76.6,22.1,0.00,NNW,338,0.0,0.0,13,0.00,,---,0.00,VWS V14.01,2013-07-25 05:47:00,
2013-07-24 22:52:00,76.3,21.9,0.00,NNW,338,0.0,0.0,13,0.00,,---,0.00,VWS V14.01,2013-07-25 05:52:00,
2013-07-24 22:57:00,75.7,21.5,0.00,NNW,338,0.0,0.0,13,0.00,,---,0.00,VWS V14.01,2013-07-25 05:57:00,
2013-07-24 23:02:00,75.6,21.3,0.00,NNW,338,0.0,0.0,13,0.00,,---,0.00,VWS V14.01,2013-07-25 06:02:00,
2013-07-24 23:07:00,75.6,21.3,0.00,NNW,338,0.0,0.0,13,0.00,,---,0.00,VWS V14.01,2013-07-25 06:07:00,
2013-07-24 23:12:00,75.6,21.3,0.00,NNW,338,0.0,0.0,13,0.00,,---,0.00,VWS V14.01,2013-07-25 06:12:00,
2013-07-24 23:17:00,75.4,21.2,0.00,NNW,339,0.0,0.0,13,0.00,,---,0.00,VWS V14.01,2013-07-25 06:17:00,
2013-07-24 23:22:00,75.4,21.2,0.00,NNW,338,0.0,0.0,13,0.00,,---,0.00,VWS V14.01,2013-07-25 06:22:00,
2013-07-24 23:27:00,75.4,21.2,0.00,NNW,338,0.0,0.0,13,0.00,,---,0.00,VWS V14.01,2013-07-25 06:27:00,
2013-07-24 23:32:00,75.4,21.2,0.00,NNW,338,0.0,0.0,13,0.00,,---,0.00,VWS V14.01,2013-07-25 06:32:00,
2013-07-24 23:37:00,75.0,20.9,0.00,NNW,338,0.0,0.0,13,0.00,,---,0.00,VWS V14.01,2013-07-25 06:37:00,
2013-07-24 23:42:00,74.7,20.6,0.00,NNW,339,0.0,0.0,13,0.00,,---,0.00,VWS V14.01,2013-07-25 06:42:00,
2013-07-24 23:47:00,74.5,20.5,0.00,NNW,339,0.0,0.0,13,0.00,,---,0.00,VWS V14.01,2013-07-25 06:47:00,
2013-07-24 23:52:00,74.3,20.3,0.00,NNW,339,0.0,0.0,13,0.00,,---,0.00,VWS V14.01,2013-07-25 06:52:00,
2013-07-24 23:57:00,73.8,19.9,0.00,NNW,339,0.0,0.0,13,0.00,,---,0.00,VWS V14.01,2013-07-25 06:57:00,